createdAt,value
2023-01-22T00:00:09.857Z,4.32
2023-01-22T00:02:39.754Z,4.50
2023-01-22T00:05:07.206Z,4.40
2023-01-22T00:07:34.303Z,4.43
2023-01-22T00:10:01.152Z,5.25
2023-01-22T00:12:28.157Z,4.85
2023-01-22T00:14:55.099Z,3.47
2023-01-22T00:17:23.734Z,4.55
2023-01-22T00:19:50.761Z,4.85
2023-01-22T00:22:17.722Z,3.92
2023-01-22T00:24:44.923Z,4.40
2023-01-22T00:27:12.742Z,4.25
2023-01-22T00:29:39.744Z,4.65
2023-01-22T00:32:07.029Z,4.63
2023-01-22T00:34:34.071Z,4.35
2023-01-22T00:37:00.986Z,4.47
2023-01-22T00:39:27.887Z,4.78
2023-01-22T00:41:55.042Z,4.85
2023-01-22T00:44:22.771Z,4.47
2023-01-22T00:46:52.911Z,4.35
2023-01-22T00:49:20.266Z,4.10
2023-01-22T00:51:47.348Z,4.50
2023-01-22T00:54:14.628Z,4.05
2023-01-22T00:56:41.615Z,4.32
2023-01-22T00:59:10.693Z,4.50
2023-01-22T01:01:40.663Z,4.63
2023-01-22T01:04:07.691Z,4.28
2023-01-22T01:06:34.949Z,4.20
2023-01-22T01:09:02.101Z,4.70
2023-01-22T01:11:29.947Z,3.92
2023-01-22T01:13:57.061Z,4.45
2023-01-22T01:16:27.256Z,4.90
2023-01-22T01:18:58.812Z,3.90
2023-01-22T01:21:27.942Z,4.25
2023-01-22T01:23:57.958Z,4.43
2023-01-22T01:26:25.926Z,4.68
2023-01-22T01:28:53.411Z,4.43
2023-01-22T01:31:23.188Z,3.80
2023-01-22T01:33:50.364Z,4.13
2023-01-22T01:36:35.382Z,3.78
2023-01-22T01:39:07.873Z,4.38
2023-01-22T01:41:34.806Z,3.88
2023-01-22T01:44:09.593Z,4.25
2023-01-22T01:47:09.474Z,4.05
2023-01-22T01:49:51.519Z,4.68
2023-01-22T01:52:19.764Z,4.15
2023-01-22T01:54:52.811Z,4.78
2023-01-22T01:57:25.225Z,4.80
2023-01-22T01:59:53.964Z,4.80
2023-01-22T02:02:22.425Z,5.20
2023-01-22T02:04:51.134Z,4.75
2023-01-22T02:07:18.434Z,4.25
2023-01-22T02:09:45.746Z,4.63
2023-01-22T02:12:15.065Z,4.38
2023-01-22T02:14:48.124Z,5.18
2023-01-22T02:17:20.307Z,4.32
2023-01-22T02:19:50.752Z,4.72
2023-01-22T02:22:25.618Z,4.68
2023-01-22T02:24:52.804Z,4.18
2023-01-22T02:27:19.959Z,3.95
2023-01-22T02:29:48.589Z,4.07
2023-01-22T02:32:15.605Z,4.18
2023-01-22T02:34:42.587Z,4.63
2023-01-22T02:37:10.188Z,3.95
2023-01-22T02:39:37.143Z,4.30
2023-01-22T02:42:06.073Z,4.82
2023-01-22T02:44:33.161Z,4.40
2023-01-22T02:47:00.186Z,4.00
2023-01-22T02:49:28.633Z,3.83
2023-01-22T02:51:55.679Z,3.83
2023-01-22T02:54:23.948Z,4.55
2023-01-22T02:56:50.936Z,4.85
2023-01-22T02:59:18.873Z,4.35
2023-01-22T03:01:47.113Z,4.07
2023-01-22T03:04:15.568Z,4.38
2023-01-22T03:06:45.752Z,4.03
2023-01-22T03:09:17.153Z,4.60
2023-01-22T03:11:46.096Z,4.55
2023-01-22T03:28:09.567Z,4.45
2023-01-22T03:30:38.841Z,3.95
2023-01-22T03:33:07.707Z,3.97
2023-01-22T03:35:34.616Z,4.30
2023-01-22T03:38:08.678Z,4.25
2023-01-22T03:40:35.665Z,4.32
2023-01-22T03:43:02.619Z,5.38
2023-01-22T03:45:29.447Z,4.25
2023-01-22T03:47:56.394Z,4.15
2023-01-22T03:50:30.308Z,4.50
2023-01-22T03:52:58.280Z,4.38
2023-01-22T03:55:26.212Z,4.38
2023-01-22T03:57:54.198Z,4.13
2023-01-22T04:00:21.494Z,4.38
2023-01-22T04:02:50.336Z,4.20
2023-01-22T04:05:21.578Z,4.35
2023-01-22T04:07:50.761Z,4.00
2023-01-22T04:10:21.353Z,3.95
2023-01-22T04:12:48.783Z,4.22
2023-01-22T04:15:18.687Z,4.20
2023-01-22T04:17:46.261Z,4.72
2023-01-22T04:20:30.216Z,3.97
2023-01-22T04:22:59.860Z,4.70
2023-01-22T04:25:28.036Z,4.88
2023-01-22T04:27:55.176Z,4.30
2023-01-22T04:30:22.240Z,3.60
2023-01-22T04:32:56.608Z,4.28
2023-01-22T04:35:32.191Z,3.95
2023-01-22T04:38:00.077Z,4.18
2023-01-22T04:40:27.209Z,3.80
2023-01-22T04:42:55.464Z,3.80
2023-01-22T04:45:23.672Z,4.50
2023-01-22T04:47:51.612Z,4.60
2023-01-22T04:50:27.233Z,5.03
2023-01-22T04:52:55.757Z,4.28
2023-01-22T04:55:24.364Z,4.38
2023-01-22T04:58:02.873Z,5.88
2023-01-22T05:00:31.008Z,4.80
2023-01-22T05:03:02.318Z,4.43
2023-01-22T05:05:30.756Z,4.30
2023-01-22T05:08:00.300Z,4.78
2023-01-22T05:10:29.116Z,4.47
2023-01-22T05:12:56.660Z,4.13
2023-01-22T05:15:25.614Z,4.68
2023-01-22T05:17:56.525Z,4.38
2023-01-22T05:20:23.743Z,4.82
2023-01-22T05:22:50.637Z,4.70
2023-01-22T05:25:22.067Z,5.20
2023-01-22T05:27:49.266Z,4.40
2023-01-22T05:30:28.049Z,4.40
2023-01-22T05:32:59.894Z,4.60
2023-01-22T05:35:28.261Z,4.43
2023-01-22T05:37:56.707Z,5.03
2023-01-22T05:40:24.352Z,4.30
2023-01-22T05:42:54.239Z,4.32
2023-01-22T05:45:21.860Z,4.30
2023-01-22T05:48:15.339Z,4.28
2023-01-22T05:50:52.745Z,4.13
2023-01-22T05:53:19.726Z,4.60
2023-01-22T05:55:46.950Z,4.53
2023-01-22T05:58:14.218Z,4.28
2023-01-22T06:00:44.362Z,4.18
2023-01-22T06:03:12.563Z,4.45
2023-01-22T06:08:15.260Z,3.83
2023-01-22T06:10:50.596Z,4.18
2023-01-22T06:13:19.032Z,3.90
2023-01-22T06:15:48.726Z,3.92
2023-01-22T06:18:36.248Z,5.50
2023-01-22T06:21:06.018Z,3.55
2023-01-22T06:23:33.683Z,3.78
2023-01-22T06:26:01.901Z,4.13
2023-01-22T06:28:30.722Z,4.00
2023-01-22T06:31:05.420Z,3.67
2023-01-22T06:33:34.699Z,3.60
2023-01-22T06:36:01.947Z,4.35
2023-01-22T06:38:29.241Z,3.90
2023-01-22T06:41:00.456Z,4.50
2023-01-22T06:43:29.159Z,4.15
2023-01-22T06:45:56.378Z,3.70
2023-01-22T06:51:11.354Z,3.72
2023-01-22T06:53:38.915Z,4.13
2023-01-22T06:56:06.377Z,3.10
2023-01-22T06:58:33.761Z,3.95
2023-01-22T07:01:02.268Z,3.28
2023-01-22T07:03:29.244Z,4.28
2023-01-22T07:06:01.413Z,3.85
2023-01-22T07:08:30.140Z,3.92
2023-01-22T07:10:57.339Z,3.90
2023-01-22T07:13:24.308Z,3.63
2023-01-22T07:15:51.614Z,4.88
2023-01-22T07:18:21.082Z,4.05
2023-01-22T07:20:48.157Z,4.65
2023-01-22T07:23:15.093Z,4.63
2023-01-22T07:25:42.377Z,3.97
2023-01-22T07:28:09.397Z,3.60
2023-01-22T07:30:36.390Z,4.45
2023-01-22T07:33:04.349Z,3.92
2023-01-22T07:35:31.523Z,3.53
2023-01-22T07:37:59.414Z,3.58
2023-01-22T07:40:26.764Z,3.40
2023-01-22T07:42:55.118Z,3.83
2023-01-22T07:45:27.216Z,4.70
2023-01-22T07:47:56.668Z,4.50
2023-01-22T07:50:25.927Z,3.70
2023-01-22T07:52:53.399Z,3.90
2023-01-22T07:55:20.748Z,4.97
2023-01-22T07:57:47.950Z,4.03
2023-01-22T08:00:18.580Z,4.43
2023-01-22T08:02:45.629Z,4.50
2023-01-22T08:05:14.438Z,5.07
2023-01-22T08:07:41.389Z,4.72
2023-01-22T08:10:09.713Z,4.82
2023-01-22T08:12:38.597Z,4.97
2023-01-22T08:15:06.024Z,4.70
2023-01-22T08:17:32.894Z,3.95
2023-01-22T08:19:59.955Z,4.38
2023-01-22T08:22:26.828Z,4.55
2023-01-22T08:24:54.337Z,6.18
2023-01-22T08:27:22.051Z,4.55
2023-01-22T08:29:51.627Z,5.93
2023-01-22T08:32:19.781Z,5.85
2023-01-22T08:34:46.744Z,5.75
2023-01-22T08:37:13.803Z,4.50
2023-01-22T08:39:40.704Z,4.88
2023-01-22T08:42:07.619Z,4.68
2023-01-22T08:44:34.460Z,4.72
2023-01-22T08:47:01.393Z,4.57
2023-01-22T08:49:30.561Z,5.00
2023-01-22T08:51:57.644Z,5.65
2023-01-22T08:54:24.714Z,5.45
2023-01-22T08:56:51.630Z,8.45
2023-01-22T08:59:18.639Z,10.88
2023-01-22T09:01:45.637Z,9.90
2023-01-22T09:04:12.491Z,11.43
2023-01-22T09:06:39.906Z,9.35
2023-01-22T09:09:07.293Z,9.77
2023-01-22T09:11:34.603Z,7.47
2023-01-22T09:14:01.559Z,7.53
2023-01-22T09:16:28.705Z,7.68
2023-01-22T09:18:55.657Z,6.82
2023-01-22T09:21:22.567Z,6.10
2023-01-22T09:23:49.448Z,6.57
2023-01-22T09:26:16.308Z,6.38
2023-01-22T09:28:43.289Z,5.20
2023-01-22T09:31:13.686Z,5.90
2023-01-22T09:33:40.742Z,6.70
2023-01-22T09:36:10.037Z,8.82
2023-01-22T09:38:37.396Z,10.13
2023-01-22T09:41:26.142Z,10.07
2023-01-22T09:44:02.252Z,10.68
2023-01-22T09:46:48.798Z,9.45
2023-01-22T09:49:21.159Z,10.93
2023-01-22T09:51:59.831Z,10.30
2023-01-22T09:54:28.924Z,9.52
2023-01-22T09:57:03.106Z,8.63
2023-01-22T10:02:24.502Z,7.90
2023-01-22T10:04:57.512Z,7.22
2023-01-22T10:07:31.135Z,9.52
2023-01-22T10:10:03.602Z,6.53
2023-01-22T10:12:30.493Z,6.22
2023-01-22T10:14:57.578Z,5.25
2023-01-22T10:17:31.542Z,5.78
2023-01-22T10:20:05.715Z,4.40
2023-01-22T10:24:59.743Z,4.65
2023-01-22T10:27:41.293Z,4.97
2023-01-22T10:30:22.137Z,5.03
2023-01-22T10:33:22.364Z,4.22
2023-01-22T10:35:52.380Z,4.60
2023-01-22T10:38:28.579Z,3.90
2023-01-22T10:40:59.034Z,4.82
2023-01-22T10:43:39.439Z,5.15
2023-01-22T10:46:23.082Z,3.90
2023-01-22T10:49:05.981Z,5.15
2023-01-22T10:51:39.481Z,5.43
2023-01-22T10:54:23.851Z,4.90
2023-01-22T10:56:51.848Z,5.07
2023-01-22T10:59:29.694Z,4.25
2023-01-22T11:02:02.051Z,5.35
2023-01-22T11:04:31.823Z,4.97
2023-01-22T11:07:26.583Z,4.97
2023-01-22T11:10:08.293Z,5.18
2023-01-22T11:12:45.550Z,7.18
2023-01-22T11:15:27.186Z,5.57
2023-01-22T11:17:58.060Z,6.15
2023-01-22T11:20:44.234Z,5.10
2023-01-22T11:23:11.123Z,4.22
2023-01-22T11:26:16.552Z,4.50
2023-01-22T11:29:08.492Z,5.55
2023-01-22T11:32:01.508Z,4.30
2023-01-22T11:34:28.406Z,6.20
2023-01-22T11:37:14.503Z,4.13
2023-01-22T11:40:09.281Z,4.95
2023-01-22T11:42:57.507Z,5.00
2023-01-22T11:45:57.139Z,5.22
2023-01-22T11:48:36.105Z,4.85
2023-01-22T11:51:21.816Z,5.75
2023-01-22T11:54:06.764Z,5.05
2023-01-22T11:56:53.037Z,4.95
2023-01-22T11:59:25.598Z,4.57
2023-01-22T12:01:59.280Z,5.07
2023-01-22T12:05:04.953Z,4.97
2023-01-22T12:07:54.844Z,5.00
2023-01-22T12:10:55.935Z,4.75
2023-01-22T12:13:47.337Z,5.38
2023-01-22T12:16:52.587Z,4.90
2023-01-22T12:19:56.894Z,5.00
2023-01-22T12:22:55.741Z,5.47
2023-01-22T12:25:43.936Z,4.90
2023-01-22T12:28:24.524Z,5.32
2023-01-22T12:31:02.195Z,5.05
2023-01-22T12:33:34.473Z,5.00
2023-01-22T12:36:03.175Z,4.80
2023-01-22T12:38:43.592Z,4.80
2023-01-22T12:41:45.947Z,5.03
2023-01-22T12:44:34.710Z,4.35
2023-01-22T12:47:11.417Z,5.45
2023-01-22T12:49:49.136Z,6.07
2023-01-22T12:52:35.139Z,5.78
2023-01-22T12:55:04.766Z,5.75
2023-01-22T12:57:42.300Z,7.20
2023-01-22T13:00:34.196Z,5.20
2023-01-22T13:03:04.140Z,6.35
2023-01-22T13:05:30.999Z,6.97
2023-01-22T13:08:16.558Z,5.45
2023-01-22T13:11:08.003Z,5.50
2023-01-22T13:13:44.753Z,7.55
2023-01-22T13:16:19.933Z,5.60
2023-01-22T13:18:58.519Z,7.10
2023-01-22T13:21:29.700Z,7.28
2023-01-22T13:24:17.678Z,7.43
2023-01-22T13:27:21.043Z,6.78
2023-01-22T13:29:47.931Z,7.72
2023-01-22T13:32:22.783Z,7.95
2023-01-22T13:34:49.777Z,7.43
2023-01-22T13:37:27.651Z,6.88
2023-01-22T13:39:54.626Z,7.63
2023-01-22T13:42:21.745Z,5.78
2023-01-22T13:44:51.476Z,6.60
2023-01-22T13:47:21.461Z,6.63
2023-01-22T13:49:48.459Z,7.30
2023-01-22T13:52:18.686Z,6.38
2023-01-22T13:55:16.697Z,6.10
2023-01-22T13:57:51.778Z,6.95
2023-01-22T14:00:27.875Z,6.10
2023-01-22T14:02:55.976Z,7.28
2023-01-22T14:05:28.924Z,6.65
2023-01-22T14:08:10.328Z,7.40
2023-01-22T14:10:37.919Z,6.30
2023-01-22T14:13:07.657Z,6.50
2023-01-22T14:15:34.838Z,6.13
2023-01-22T14:18:18.447Z,6.47
2023-01-22T14:20:47.135Z,8.40
2023-01-22T14:23:15.416Z,6.25
2023-01-22T14:25:45.687Z,6.60
2023-01-22T14:28:12.620Z,9.30
2023-01-22T14:30:39.465Z,8.68
2023-01-22T14:33:06.854Z,6.95
2023-01-22T14:35:33.804Z,8.68
2023-01-22T14:38:01.281Z,7.97
2023-01-22T14:40:28.173Z,6.72
2023-01-22T14:42:55.160Z,7.72
2023-01-22T14:45:22.445Z,8.85
2023-01-22T14:47:51.803Z,8.18
2023-01-22T14:50:19.820Z,7.80
2023-01-22T14:52:48.068Z,7.18
2023-01-22T14:55:15.284Z,6.95
2023-01-22T14:57:42.119Z,9.82
2023-01-22T15:00:13.011Z,12.35
2023-01-22T15:02:41.731Z,8.00
2023-01-22T15:05:09.686Z,9.45
2023-01-22T15:07:37.708Z,7.65
2023-01-22T15:10:06.400Z,7.97
2023-01-22T15:12:33.275Z,7.00
2023-01-22T15:15:00.267Z,7.03
2023-01-22T15:30:06.307Z,9.05
2023-01-22T15:32:33.881Z,7.97
2023-01-22T15:35:00.940Z,7.97
2023-01-22T15:37:27.838Z,7.07
2023-01-22T15:39:54.586Z,8.63
2023-01-22T15:42:21.509Z,7.50
2023-01-22T15:44:48.534Z,6.47
2023-01-22T15:47:15.486Z,6.88
2023-01-22T15:49:42.529Z,7.45
2023-01-22T15:52:09.421Z,6.63
2023-01-22T15:54:36.537Z,8.05
2023-01-22T15:57:03.498Z,7.50
2023-01-22T15:59:30.398Z,9.13
2023-01-22T16:01:57.844Z,7.63
2023-01-22T16:04:24.745Z,8.18
2023-01-22T16:06:52.282Z,8.07
2023-01-22T16:09:19.478Z,7.93
2023-01-22T16:11:46.422Z,8.73
2023-01-22T16:14:13.356Z,9.13
2023-01-22T16:16:40.406Z,7.95
2023-01-22T16:19:08.331Z,8.70
2023-01-22T16:21:35.854Z,7.93
2023-01-22T16:24:03.535Z,8.40
2023-01-22T16:26:33.254Z,9.20
2023-01-22T16:29:02.907Z,9.50
2023-01-22T16:31:32.044Z,9.48
2023-01-22T16:34:09.079Z,10.20
2023-01-22T16:36:36.297Z,8.85
2023-01-22T16:39:04.952Z,10.05
2023-01-22T16:41:37.572Z,10.52
2023-01-22T16:44:09.178Z,9.40
2023-01-22T16:46:39.839Z,10.35
2023-01-22T16:49:14.554Z,8.85
2023-01-22T16:51:47.538Z,7.72
2023-01-22T16:54:29.249Z,8.82
2023-01-22T16:56:58.632Z,8.57
2023-01-22T16:59:27.259Z,9.50
2023-01-22T17:01:55.991Z,8.68
2023-01-22T17:04:22.908Z,7.80
2023-01-22T17:06:52.421Z,6.93
2023-01-22T17:09:22.263Z,8.43
2023-01-22T17:12:01.804Z,8.52
2023-01-22T17:14:30.798Z,7.38
2023-01-22T17:16:58.919Z,9.20
2023-01-22T17:19:25.948Z,7.97
2023-01-22T17:21:58.259Z,6.95
2023-01-22T17:24:27.214Z,7.30
2023-01-22T17:26:54.701Z,7.57
2023-01-22T17:29:22.762Z,14.40
2023-01-22T17:31:49.819Z,8.52
2023-01-22T17:34:18.556Z,7.95
2023-01-22T17:36:45.600Z,8.82
2023-01-22T17:39:15.926Z,7.30
2023-01-22T17:41:43.604Z,7.53
2023-01-22T17:44:12.585Z,7.40
2023-01-22T17:46:39.980Z,7.28
2023-01-22T17:49:07.356Z,8.07
2023-01-22T17:51:35.522Z,7.95
2023-01-22T17:54:04.162Z,7.72
2023-01-22T17:56:34.652Z,8.30
2023-01-22T17:59:04.437Z,8.63
2023-01-22T18:01:32.686Z,8.35
2023-01-22T18:04:02.125Z,8.35
2023-01-22T18:06:29.776Z,10.10
2023-01-22T18:08:57.476Z,8.57
2023-01-22T18:11:29.693Z,9.80
2023-01-22T18:13:57.828Z,9.52
2023-01-22T18:16:27.631Z,10.07
2023-01-22T18:18:57.038Z,9.52
2023-01-22T18:21:24.188Z,9.00
2023-01-22T18:23:51.226Z,9.93
2023-01-22T18:26:23.064Z,11.23
2023-01-22T18:28:52.697Z,11.15
2023-01-22T18:31:25.441Z,10.30
2023-01-22T18:33:53.909Z,9.82
2023-01-22T18:36:23.776Z,13.43
2023-01-22T18:38:51.630Z,11.90
2023-01-22T18:41:20.180Z,11.00
2023-01-22T18:43:48.648Z,10.75
2023-01-22T18:46:16.709Z,11.82
2023-01-22T18:48:44.346Z,13.52
2023-01-22T18:51:13.467Z,12.23
2023-01-22T18:53:41.476Z,14.93
2023-01-22T18:56:11.227Z,12.45
2023-01-22T18:58:39.238Z,10.93
2023-01-22T19:01:22.519Z,12.18
2023-01-22T19:03:52.930Z,10.48
2023-01-22T19:06:22.975Z,11.55
2023-01-22T19:09:03.857Z,10.98
2023-01-22T19:11:33.177Z,10.32
2023-01-22T19:14:00.433Z,11.25
2023-01-22T19:16:28.406Z,10.77
2023-01-22T19:18:58.513Z,10.20
2023-01-22T19:21:27.033Z,10.60
2023-01-22T19:23:57.521Z,9.10
2023-01-22T19:26:26.732Z,9.18
2023-01-22T19:28:56.186Z,9.90
2023-01-22T19:31:32.567Z,10.00
2023-01-22T19:34:00.140Z,9.15
2023-01-22T19:36:30.944Z,9.55
2023-01-22T19:38:59.806Z,10.02
2023-01-22T19:41:27.580Z,11.75
2023-01-22T19:43:56.651Z,8.57
2023-01-22T19:46:26.049Z,9.20
2023-01-22T19:48:54.307Z,9.77
2023-01-22T19:51:27.055Z,10.13
2023-01-22T19:53:54.857Z,9.48
2023-01-22T19:56:27.512Z,10.95
2023-01-22T19:58:58.950Z,8.90
2023-01-22T20:01:25.931Z,9.70
2023-01-22T20:03:54.982Z,8.68
2023-01-22T20:06:23.418Z,9.32
2023-01-22T20:08:50.381Z,8.77
2023-01-22T20:11:17.747Z,9.27
2023-01-22T20:13:45.001Z,9.35
2023-01-22T20:16:21.989Z,9.20
2023-01-22T20:18:50.826Z,9.27
2023-01-22T20:21:18.861Z,7.93
2023-01-22T20:23:47.356Z,10.60
2023-01-22T20:26:16.113Z,10.65
2023-01-22T20:28:43.233Z,9.02
2023-01-22T20:31:17.498Z,8.27
2023-01-22T20:33:44.737Z,10.38
2023-01-22T20:36:16.303Z,9.60
2023-01-22T20:38:46.080Z,9.38
2023-01-22T20:41:14.048Z,9.35
2023-01-22T20:43:43.090Z,11.90
2023-01-22T20:46:19.471Z,12.55
2023-01-22T20:48:46.757Z,11.07
2023-01-22T20:51:18.356Z,13.30
2023-01-22T20:53:46.854Z,12.43
2023-01-22T20:56:16.578Z,13.60
2023-01-22T20:58:43.545Z,12.50
2023-01-22T21:01:16.660Z,13.38
2023-01-22T21:03:43.971Z,13.13
2023-01-22T21:06:14.155Z,15.18
2023-01-22T21:08:42.643Z,14.02
2023-01-22T21:11:14.020Z,12.30
2023-01-22T21:13:41.291Z,13.10
2023-01-22T21:16:10.801Z,13.35
2023-01-22T21:18:41.498Z,13.55
2023-01-22T21:21:10.749Z,12.25
2023-01-22T21:23:38.853Z,12.85
2023-01-22T21:26:08.519Z,12.75
2023-01-22T21:28:35.895Z,11.05
2023-01-22T21:31:11.784Z,11.52
2023-01-22T21:33:39.541Z,12.07
2023-01-22T21:36:09.532Z,12.25
2023-01-22T21:38:37.340Z,11.93
2023-01-22T21:41:18.681Z,9.85
2023-01-22T21:44:05.709Z,11.73
2023-01-22T21:46:44.132Z,11.35
2023-01-22T21:49:17.009Z,12.73
2023-01-22T21:51:45.301Z,11.27
2023-01-22T21:54:14.373Z,12.90
2023-01-22T21:56:41.621Z,12.23
2023-01-22T21:59:09.291Z,11.10
2023-01-22T22:01:37.071Z,9.93
2023-01-22T22:04:05.808Z,10.60
2023-01-22T22:06:33.395Z,12.95
2023-01-22T22:09:02.604Z,9.48
2023-01-22T22:11:29.481Z,9.82
2023-01-22T22:13:56.825Z,9.05
2023-01-22T22:16:24.148Z,9.60
2023-01-22T22:18:51.404Z,11.32
2023-01-22T22:21:18.374Z,10.45
2023-01-22T22:23:45.329Z,11.65
2023-01-22T22:26:12.547Z,9.93
2023-01-22T22:28:39.580Z,10.05
2023-01-22T22:31:13.105Z,10.70
2023-01-22T22:33:41.508Z,10.50
2023-01-22T22:36:09.246Z,10.93
2023-01-22T22:38:36.601Z,9.88
2023-01-22T22:41:11.066Z,10.68
2023-01-22T22:46:17.638Z,9.38
2023-01-22T22:48:46.085Z,10.70
2023-01-22T22:51:14.414Z,10.70
2023-01-22T22:53:41.721Z,9.18
2023-01-22T22:56:10.284Z,10.10
2023-01-22T22:58:37.824Z,9.25
2023-01-22T23:01:16.904Z,10.60
2023-01-22T23:03:43.922Z,9.27
2023-01-22T23:06:13.522Z,10.20
2023-01-22T23:08:47.731Z,9.52
2023-01-22T23:11:18.919Z,10.75
2023-01-22T23:13:48.860Z,9.45
2023-01-22T23:16:21.002Z,8.52
2023-01-22T23:18:51.739Z,9.00
2023-01-22T23:21:24.581Z,9.10
2023-01-22T23:23:53.201Z,9.15
2023-01-22T23:26:28.066Z,9.15
2023-01-22T23:28:58.019Z,8.63
2023-01-22T23:31:26.718Z,9.27
2023-01-22T23:33:55.466Z,9.15
2023-01-22T23:36:23.215Z,7.97
2023-01-22T23:38:50.225Z,9.75
2023-01-22T23:41:19.185Z,8.82
2023-01-22T23:43:46.575Z,9.18
2023-01-22T23:46:16.618Z,8.07
2023-01-22T23:48:43.866Z,9.27
2023-01-22T23:51:12.466Z,9.05
2023-01-22T23:53:41.824Z,8.63
2023-01-22T23:56:10.506Z,9.13
2023-01-22T23:58:37.853Z,7.55
